sensor_id;sensor_type;location;lat;lon;timestamp;temperature;humidity
7900;DHT22;3995;50.856;4.404;2023-07-20T00:00:46;23.50;53.60
7900;DHT22;3995;50.856;4.404;2023-07-20T00:03:16;23.50;53.60
7900;DHT22;3995;50.856;4.404;2023-07-20T00:05:44;23.50;53.60
7900;DHT22;3995;50.856;4.404;2023-07-20T00:08:13;23.40;53.60
7900;DHT22;3995;50.856;4.404;2023-07-20T00:10:41;23.40;53.70
7900;DHT22;3995;50.856;4.404;2023-07-20T00:13:09;23.40;53.70
7900;DHT22;3995;50.856;4.404;2023-07-20T00:15:37;23.40;53.80
7900;DHT22;3995;50.856;4.404;2023-07-20T00:18:05;23.40;53.80
7900;DHT22;3995;50.856;4.404;2023-07-20T00:20:33;23.40;54.00
7900;DHT22;3995;50.856;4.404;2023-07-20T00:23:01;23.40;54.60
7900;DHT22;3995;50.856;4.404;2023-07-20T00:25:29;23.40;54.20
7900;DHT22;3995;50.856;4.404;2023-07-20T00:27:57;23.40;54.20
7900;DHT22;3995;50.856;4.404;2023-07-20T00:30:24;23.30;54.30
7900;DHT22;3995;50.856;4.404;2023-07-20T00:32:52;23.30;54.30
7900;DHT22;3995;50.856;4.404;2023-07-20T00:35:19;23.30;54.40
7900;DHT22;3995;50.856;4.404;2023-07-20T00:37:47;23.30;54.50
7900;DHT22;3995;50.856;4.404;2023-07-20T00:40:14;23.30;54.60
7900;DHT22;3995;50.856;4.404;2023-07-20T00:42:45;23.30;54.60
7900;DHT22;3995;50.856;4.404;2023-07-20T00:45:12;23.30;55.30
7900;DHT22;3995;50.856;4.404;2023-07-20T00:47:40;23.30;54.70
7900;DHT22;3995;50.856;4.404;2023-07-20T00:50:09;23.30;54.70
7900;DHT22;3995;50.856;4.404;2023-07-20T00:52:37;23.30;54.80
7900;DHT22;3995;50.856;4.404;2023-07-20T00:55:07;23.30;54.70
7900;DHT22;3995;50.856;4.404;2023-07-20T00:57:35;23.30;54.70
7900;DHT22;3995;50.856;4.404;2023-07-20T01:00:07;23.30;54.70
7900;DHT22;3995;50.856;4.404;2023-07-20T01:02:34;23.30;54.80
7900;DHT22;3995;50.856;4.404;2023-07-20T01:05:03;23.30;54.80
7900;DHT22;3995;50.856;4.404;2023-07-20T01:07:34;23.30;54.90
7900;DHT22;3995;50.856;4.404;2023-07-20T01:10:06;23.30;55.00
7900;DHT22;3995;50.856;4.404;2023-07-20T01:12:42;23.30;55.00
7900;DHT22;3995;50.856;4.404;2023-07-20T01:15:11;23.30;55.10
7900;DHT22;3995;50.856;4.404;2023-07-20T01:17:38;23.30;55.20
7900;DHT22;3995;50.856;4.404;2023-07-20T01:20:07;23.30;55.20
7900;DHT22;3995;50.856;4.404;2023-07-20T01:23:01;23.30;55.80
7900;DHT22;3995;50.856;4.404;2023-07-20T01:25:51;23.30;55.10
7900;DHT22;3995;50.856;4.404;2023-07-20T01:28:42;23.20;55.30
7900;DHT22;3995;50.856;4.404;2023-07-20T01:31:21;23.20;55.20
7900;DHT22;3995;50.856;4.404;2023-07-20T01:33:49;23.20;55.30
7900;DHT22;3995;50.856;4.404;2023-07-20T01:36:18;23.20;55.40
7900;DHT22;3995;50.856;4.404;2023-07-20T01:38:46;23.10;55.40
7900;DHT22;3995;50.856;4.404;2023-07-20T01:41:14;23.20;55.60
7900;DHT22;3995;50.856;4.404;2023-07-20T01:43:42;23.10;55.60
7900;DHT22;3995;50.856;4.404;2023-07-20T01:46:09;23.10;55.70
7900;DHT22;3995;50.856;4.404;2023-07-20T01:48:39;23.20;55.80
7900;DHT22;3995;50.856;4.404;2023-07-20T01:51:06;23.10;55.80
7900;DHT22;3995;50.856;4.404;2023-07-20T01:53:34;23.10;55.80
7900;DHT22;3995;50.856;4.404;2023-07-20T01:56:01;23.10;55.90
7900;DHT22;3995;50.856;4.404;2023-07-20T01:58:28;23.10;56.00
7900;DHT22;3995;50.856;4.404;2023-07-20T02:00:56;23.10;56.10
7900;DHT22;3995;50.856;4.404;2023-07-20T02:03:23;23.10;56.20
7900;DHT22;3995;50.856;4.404;2023-07-20T02:05:54;23.10;56.30
7900;DHT22;3995;50.856;4.404;2023-07-20T02:08:22;23.10;56.40
7900;DHT22;3995;50.856;4.404;2023-07-20T02:10:50;23.10;56.40
7900;DHT22;3995;50.856;4.404;2023-07-20T02:13:18;23.00;56.40
7900;DHT22;3995;50.856;4.404;2023-07-20T02:15:45;23.00;56.60
7900;DHT22;3995;50.856;4.404;2023-07-20T02:18:15;23.00;56.60
7900;DHT22;3995;50.856;4.404;2023-07-20T02:20:42;23.00;56.70
7900;DHT22;3995;50.856;4.404;2023-07-20T02:23:12;23.00;56.80
7900;DHT22;3995;50.856;4.404;2023-07-20T02:25:39;23.00;56.90
7900;DHT22;3995;50.856;4.404;2023-07-20T02:28:08;23.00;56.90
7900;DHT22;3995;50.856;4.404;2023-07-20T02:30:38;23.00;56.90
7900;DHT22;3995;50.856;4.404;2023-07-20T02:33:06;23.00;56.90
7900;DHT22;3995;50.856;4.404;2023-07-20T02:35:33;23.00;57.10
7900;DHT22;3995;50.856;4.404;2023-07-20T02:38:00;23.00;57.10
7900;DHT22;3995;50.856;4.404;2023-07-20T02:40:30;23.00;57.10
7900;DHT22;3995;50.856;4.404;2023-07-20T02:42:57;23.00;57.10
7900;DHT22;3995;50.856;4.404;2023-07-20T02:45:24;23.00;57.10
7900;DHT22;3995;50.856;4.404;2023-07-20T02:47:51;23.00;57.10
7900;DHT22;3995;50.856;4.404;2023-07-20T02:50:18;23.00;57.20
7900;DHT22;3995;50.856;4.404;2023-07-20T02:52:46;23.00;57.20
7900;DHT22;3995;50.856;4.404;2023-07-20T02:55:14;23.00;57.30
7900;DHT22;3995;50.856;4.404;2023-07-20T02:57:43;23.00;57.30
7900;DHT22;3995;50.856;4.404;2023-07-20T03:00:11;23.00;57.30
7900;DHT22;3995;50.856;4.404;2023-07-20T03:02:41;23.00;57.40
7900;DHT22;3995;50.856;4.404;2023-07-20T03:05:10;23.00;57.40
7900;DHT22;3995;50.856;4.404;2023-07-20T03:07:37;23.00;57.40
7900;DHT22;3995;50.856;4.404;2023-07-20T03:10:05;23.00;57.40
7900;DHT22;3995;50.856;4.404;2023-07-20T03:12:34;23.00;57.50
7900;DHT22;3995;50.856;4.404;2023-07-20T03:15:04;23.00;57.50
7900;DHT22;3995;50.856;4.404;2023-07-20T03:17:32;23.00;57.50
7900;DHT22;3995;50.856;4.404;2023-07-20T03:19:59;23.00;57.60
7900;DHT22;3995;50.856;4.404;2023-07-20T03:22:28;23.00;57.60
7900;DHT22;3995;50.856;4.404;2023-07-20T03:24:56;23.00;57.70
7900;DHT22;3995;50.856;4.404;2023-07-20T03:27:23;23.00;57.70
7900;DHT22;3995;50.856;4.404;2023-07-20T03:29:51;23.00;57.70
7900;DHT22;3995;50.856;4.404;2023-07-20T03:32:20;23.00;57.80
7900;DHT22;3995;50.856;4.404;2023-07-20T03:34:47;23.00;57.80
7900;DHT22;3995;50.856;4.404;2023-07-20T03:37:15;22.90;57.80
7900;DHT22;3995;50.856;4.404;2023-07-20T03:39:42;22.90;57.80
7900;DHT22;3995;50.856;4.404;2023-07-20T03:42:10;22.90;57.90
7900;DHT22;3995;50.856;4.404;2023-07-20T03:44:37;22.90;57.90
7900;DHT22;3995;50.856;4.404;2023-07-20T03:47:05;22.90;57.90
7900;DHT22;3995;50.856;4.404;2023-07-20T03:49:34;22.90;57.90
7900;DHT22;3995;50.856;4.404;2023-07-20T03:52:02;22.90;58.00
7900;DHT22;3995;50.856;4.404;2023-07-20T03:54:30;22.90;58.00
7900;DHT22;3995;50.856;4.404;2023-07-20T03:56:57;22.90;58.00
7900;DHT22;3995;50.856;4.404;2023-07-20T03:59:24;22.90;58.10
7900;DHT22;3995;50.856;4.404;2023-07-20T04:01:52;22.90;58.10
7900;DHT22;3995;50.856;4.404;2023-07-20T04:04:19;22.90;58.20
7900;DHT22;3995;50.856;4.404;2023-07-20T04:06:48;22.90;58.20
7900;DHT22;3995;50.856;4.404;2023-07-20T04:09:16;22.90;58.20
7900;DHT22;3995;50.856;4.404;2023-07-20T04:11:43;22.90;58.20
7900;DHT22;3995;50.856;4.404;2023-07-20T04:14:10;22.90;58.20
7900;DHT22;3995;50.856;4.404;2023-07-20T04:16:37;22.90;58.30
7900;DHT22;3995;50.856;4.404;2023-07-20T04:19:05;22.80;58.20
7900;DHT22;3995;50.856;4.404;2023-07-20T04:21:32;22.80;58.20
7900;DHT22;3995;50.856;4.404;2023-07-20T04:24:01;22.80;58.30
7900;DHT22;3995;50.856;4.404;2023-07-20T04:26:30;22.80;58.30
7900;DHT22;3995;50.856;4.404;2023-07-20T04:28:58;22.80;58.40
7900;DHT22;3995;50.856;4.404;2023-07-20T04:31:25;22.80;58.50
7900;DHT22;3995;50.856;4.404;2023-07-20T04:33:52;22.80;58.50
7900;DHT22;3995;50.856;4.404;2023-07-20T04:36:20;22.80;58.50
7900;DHT22;3995;50.856;4.404;2023-07-20T04:38:47;22.80;58.40
7900;DHT22;3995;50.856;4.404;2023-07-20T04:41:17;22.80;58.40
7900;DHT22;3995;50.856;4.404;2023-07-20T04:43:45;22.90;58.40
7900;DHT22;3995;50.856;4.404;2023-07-20T04:46:13;22.80;58.40
7900;DHT22;3995;50.856;4.404;2023-07-20T04:48:40;22.90;58.50
7900;DHT22;3995;50.856;4.404;2023-07-20T04:51:08;22.90;58.50
7900;DHT22;3995;50.856;4.404;2023-07-20T04:53:36;22.90;58.50
7900;DHT22;3995;50.856;4.404;2023-07-20T04:56:03;22.90;58.50
7900;DHT22;3995;50.856;4.404;2023-07-20T04:58:33;22.90;58.50
7900;DHT22;3995;50.856;4.404;2023-07-20T05:01:00;22.90;58.50
7900;DHT22;3995;50.856;4.404;2023-07-20T05:03:28;22.90;58.50
7900;DHT22;3995;50.856;4.404;2023-07-20T05:05:56;22.90;58.60
7900;DHT22;3995;50.856;4.404;2023-07-20T05:08:24;22.90;58.60
7900;DHT22;3995;50.856;4.404;2023-07-20T05:10:52;22.90;58.70
7900;DHT22;3995;50.856;4.404;2023-07-20T05:13:19;22.90;58.80
7900;DHT22;3995;50.856;4.404;2023-07-20T05:15:51;22.90;58.80
7900;DHT22;3995;50.856;4.404;2023-07-20T05:18:18;22.90;58.80
7900;DHT22;3995;50.856;4.404;2023-07-20T05:20:46;22.90;58.70
7900;DHT22;3995;50.856;4.404;2023-07-20T05:23:14;22.90;58.80
7900;DHT22;3995;50.856;4.404;2023-07-20T05:25:41;22.90;58.80
7900;DHT22;3995;50.856;4.404;2023-07-20T05:28:09;22.90;58.80
7900;DHT22;3995;50.856;4.404;2023-07-20T05:30:36;22.90;58.80
7900;DHT22;3995;50.856;4.404;2023-07-20T05:33:05;22.90;58.80
7900;DHT22;3995;50.856;4.404;2023-07-20T05:35:32;22.90;58.70
7900;DHT22;3995;50.856;4.404;2023-07-20T05:38:00;22.90;58.70
7900;DHT22;3995;50.856;4.404;2023-07-20T05:40:27;22.90;58.70
7900;DHT22;3995;50.856;4.404;2023-07-20T05:42:55;22.90;58.80
7900;DHT22;3995;50.856;4.404;2023-07-20T05:45:23;22.90;58.90
7900;DHT22;3995;50.856;4.404;2023-07-20T05:47:50;22.90;59.10
7900;DHT22;3995;50.856;4.404;2023-07-20T05:50:19;22.90;59.20
7900;DHT22;3995;50.856;4.404;2023-07-20T05:52:47;22.90;59.20
7900;DHT22;3995;50.856;4.404;2023-07-20T05:55:15;22.90;59.30
7900;DHT22;3995;50.856;4.404;2023-07-20T05:57:42;22.90;59.30
7900;DHT22;3995;50.856;4.404;2023-07-20T06:00:10;22.90;59.20
7900;DHT22;3995;50.856;4.404;2023-07-20T06:02:38;22.90;59.20
7900;DHT22;3995;50.856;4.404;2023-07-20T06:05:07;22.90;59.20
7900;DHT22;3995;50.856;4.404;2023-07-20T06:07:36;22.90;59.20
7900;DHT22;3995;50.856;4.404;2023-07-20T06:10:06;22.90;59.10
7900;DHT22;3995;50.856;4.404;2023-07-20T06:12:33;22.90;59.10
7900;DHT22;3995;50.856;4.404;2023-07-20T06:15:03;22.90;59.10
7900;DHT22;3995;50.856;4.404;2023-07-20T06:17:30;22.90;59.00
7900;DHT22;3995;50.856;4.404;2023-07-20T06:19:58;22.90;59.00
7900;DHT22;3995;50.856;4.404;2023-07-20T06:22:27;22.90;59.00
7900;DHT22;3995;50.856;4.404;2023-07-20T06:24:58;22.90;58.90
7900;DHT22;3995;50.856;4.404;2023-07-20T06:27:26;22.90;58.80
7900;DHT22;3995;50.856;4.404;2023-07-20T06:29:53;22.90;58.70
7900;DHT22;3995;50.856;4.404;2023-07-20T06:32:20;22.90;58.70
7900;DHT22;3995;50.856;4.404;2023-07-20T06:34:48;22.90;58.60
7900;DHT22;3995;50.856;4.404;2023-07-20T06:37:15;22.90;58.60
7900;DHT22;3995;50.856;4.404;2023-07-20T06:39:42;22.90;58.70
7900;DHT22;3995;50.856;4.404;2023-07-20T06:42:11;22.90;58.60
7900;DHT22;3995;50.856;4.404;2023-07-20T06:44:39;23.00;58.80
7900;DHT22;3995;50.856;4.404;2023-07-20T06:47:06;23.00;58.80
7900;DHT22;3995;50.856;4.404;2023-07-20T06:49:34;23.00;58.80
7900;DHT22;3995;50.856;4.404;2023-07-20T06:52:02;23.00;58.70
7900;DHT22;3995;50.856;4.404;2023-07-20T06:54:30;23.00;58.50
7900;DHT22;3995;50.856;4.404;2023-07-20T06:56:57;23.00;58.40
7900;DHT22;3995;50.856;4.404;2023-07-20T06:59:27;22.90;58.20
7900;DHT22;3995;50.856;4.404;2023-07-20T07:01:54;23.00;58.20
7900;DHT22;3995;50.856;4.404;2023-07-20T07:04:21;23.00;58.10
7900;DHT22;3995;50.856;4.404;2023-07-20T07:06:49;23.00;57.90
7900;DHT22;3995;50.856;4.404;2023-07-20T07:09:16;23.00;57.70
7900;DHT22;3995;50.856;4.404;2023-07-20T07:11:44;23.00;57.50
7900;DHT22;3995;50.856;4.404;2023-07-20T07:14:12;23.00;57.40
7900;DHT22;3995;50.856;4.404;2023-07-20T07:16:41;23.00;57.30
7900;DHT22;3995;50.856;4.404;2023-07-20T07:19:08;23.00;57.30
7900;DHT22;3995;50.856;4.404;2023-07-20T07:21:36;23.00;56.70
7900;DHT22;3995;50.856;4.404;2023-07-20T07:24:04;23.00;56.50
7900;DHT22;3995;50.856;4.404;2023-07-20T07:26:33;23.00;56.40
7900;DHT22;3995;50.856;4.404;2023-07-20T07:29:00;23.00;56.20
7900;DHT22;3995;50.856;4.404;2023-07-20T07:31:29;23.00;56.20
7900;DHT22;3995;50.856;4.404;2023-07-20T07:33:57;23.00;56.30
7900;DHT22;3995;50.856;4.404;2023-07-20T07:36:25;23.00;55.90
7900;DHT22;3995;50.856;4.404;2023-07-20T07:38:53;23.00;56.00
7900;DHT22;3995;50.856;4.404;2023-07-20T07:41:20;23.10;55.90
7900;DHT22;3995;50.856;4.404;2023-07-20T07:43:48;23.10;56.00
7900;DHT22;3995;50.856;4.404;2023-07-20T07:46:16;23.10;55.90
7900;DHT22;3995;50.856;4.404;2023-07-20T07:48:44;23.10;55.90
7900;DHT22;3995;50.856;4.404;2023-07-20T07:51:12;23.10;55.50
7900;DHT22;3995;50.856;4.404;2023-07-20T07:53:41;23.10;55.20
7900;DHT22;3995;50.856;4.404;2023-07-20T07:56:09;23.00;54.90
7900;DHT22;3995;50.856;4.404;2023-07-20T07:58:37;23.10;54.70
7900;DHT22;3995;50.856;4.404;2023-07-20T08:01:04;23.10;54.40
7900;DHT22;3995;50.856;4.404;2023-07-20T08:03:32;23.10;54.30
7900;DHT22;3995;50.856;4.404;2023-07-20T08:05:59;23.10;54.20
7900;DHT22;3995;50.856;4.404;2023-07-20T08:08:32;23.10;54.20
7900;DHT22;3995;50.856;4.404;2023-07-20T08:10:59;23.10;54.30
7900;DHT22;3995;50.856;4.404;2023-07-20T08:13:26;23.20;54.50
7900;DHT22;3995;50.856;4.404;2023-07-20T08:15:53;23.10;54.30
7900;DHT22;3995;50.856;4.404;2023-07-20T08:18:21;23.20;54.20
7900;DHT22;3995;50.856;4.404;2023-07-20T08:20:48;23.10;54.10
7900;DHT22;3995;50.856;4.404;2023-07-20T08:23:16;23.20;54.20
7900;DHT22;3995;50.856;4.404;2023-07-20T08:25:45;23.10;54.00
7900;DHT22;3995;50.856;4.404;2023-07-20T08:28:14;23.20;54.00
7900;DHT22;3995;50.856;4.404;2023-07-20T08:30:43;23.20;54.00
7900;DHT22;3995;50.856;4.404;2023-07-20T08:33:13;23.20;53.90
7900;DHT22;3995;50.856;4.404;2023-07-20T08:35:41;23.20;53.80
7900;DHT22;3995;50.856;4.404;2023-07-20T08:38:08;23.20;53.30
7900;DHT22;3995;50.856;4.404;2023-07-20T08:40:40;23.20;53.20
7900;DHT22;3995;50.856;4.404;2023-07-20T08:43:08;23.30;53.30
7900;DHT22;3995;50.856;4.404;2023-07-20T08:45:39;23.30;53.20
7900;DHT22;3995;50.856;4.404;2023-07-20T08:48:07;23.30;53.00
7900;DHT22;3995;50.856;4.404;2023-07-20T08:50:35;23.30;53.00
7900;DHT22;3995;50.856;4.404;2023-07-20T08:53:03;23.30;52.90
7900;DHT22;3995;50.856;4.404;2023-07-20T08:55:31;23.30;52.90
7900;DHT22;3995;50.856;4.404;2023-07-20T08:58:00;23.30;53.00
7900;DHT22;3995;50.856;4.404;2023-07-20T09:00:29;23.30;52.80
7900;DHT22;3995;50.856;4.404;2023-07-20T09:02:57;23.30;52.70
7900;DHT22;3995;50.856;4.404;2023-07-20T09:05:26;23.30;52.90
7900;DHT22;3995;50.856;4.404;2023-07-20T09:07:53;23.30;52.80
7900;DHT22;3995;50.856;4.404;2023-07-20T09:10:21;23.40;52.30
7900;DHT22;3995;50.856;4.404;2023-07-20T09:12:49;23.40;52.10
7900;DHT22;3995;50.856;4.404;2023-07-20T09:15:16;23.40;51.90
7900;DHT22;3995;50.856;4.404;2023-07-20T09:17:50;23.40;51.80
7900;DHT22;3995;50.856;4.404;2023-07-20T09:20:20;23.40;51.70
7900;DHT22;3995;50.856;4.404;2023-07-20T09:22:47;23.40;51.70
7900;DHT22;3995;50.856;4.404;2023-07-20T09:25:17;23.40;51.70
7900;DHT22;3995;50.856;4.404;2023-07-20T09:27:47;23.40;51.80
7900;DHT22;3995;50.856;4.404;2023-07-20T09:30:15;23.40;51.80
7900;DHT22;3995;50.856;4.404;2023-07-20T09:32:44;23.50;51.80
7900;DHT22;3995;50.856;4.404;2023-07-20T09:35:17;23.50;51.80
7900;DHT22;3995;50.856;4.404;2023-07-20T09:37:50;23.50;51.80
7900;DHT22;3995;50.856;4.404;2023-07-20T09:40:19;23.50;51.70
7900;DHT22;3995;50.856;4.404;2023-07-20T09:42:47;23.50;51.70
7900;DHT22;3995;50.856;4.404;2023-07-20T09:45:14;23.50;51.60
7900;DHT22;3995;50.856;4.404;2023-07-20T09:47:42;23.60;51.70
7900;DHT22;3995;50.856;4.404;2023-07-20T09:50:09;23.60;51.60
7900;DHT22;3995;50.856;4.404;2023-07-20T09:52:42;23.60;51.50
7900;DHT22;3995;50.856;4.404;2023-07-20T09:55:10;23.60;51.20
7900;DHT22;3995;50.856;4.404;2023-07-20T09:57:38;23.60;51.20
7900;DHT22;3995;50.856;4.404;2023-07-20T10:00:07;23.60;51.00
7900;DHT22;3995;50.856;4.404;2023-07-20T10:02:42;23.60;51.00
7900;DHT22;3995;50.856;4.404;2023-07-20T10:05:12;23.60;51.20
7900;DHT22;3995;50.856;4.404;2023-07-20T10:07:44;23.70;51.50
7900;DHT22;3995;50.856;4.404;2023-07-20T10:10:14;23.70;51.40
7900;DHT22;3995;50.856;4.404;2023-07-20T10:12:43;23.70;51.70
7900;DHT22;3995;50.856;4.404;2023-07-20T10:15:18;23.70;51.40
7900;DHT22;3995;50.856;4.404;2023-07-20T10:17:58;23.80;51.40
7900;DHT22;3995;50.856;4.404;2023-07-20T10:20:27;23.80;51.30
7900;DHT22;3995;50.856;4.404;2023-07-20T10:22:57;23.80;51.40
7900;DHT22;3995;50.856;4.404;2023-07-20T10:25:24;23.70;51.20
7900;DHT22;3995;50.856;4.404;2023-07-20T10:27:51;23.80;50.90
7900;DHT22;3995;50.856;4.404;2023-07-20T10:30:20;23.80;50.70
7900;DHT22;3995;50.856;4.404;2023-07-20T10:32:47;23.80;50.60
7900;DHT22;3995;50.856;4.404;2023-07-20T10:35:16;23.80;50.60
7900;DHT22;3995;50.856;4.404;2023-07-20T10:37:54;23.90;50.40
7900;DHT22;3995;50.856;4.404;2023-07-20T10:40:31;23.90;50.40
7900;DHT22;3995;50.856;4.404;2023-07-20T10:43:00;23.90;50.30
7900;DHT22;3995;50.856;4.404;2023-07-20T10:45:42;23.90;50.40
7900;DHT22;3995;50.856;4.404;2023-07-20T10:48:16;24.00;51.10
7900;DHT22;3995;50.856;4.404;2023-07-20T10:50:45;23.90;50.40
7900;DHT22;3995;50.856;4.404;2023-07-20T10:53:14;23.90;50.40
7900;DHT22;3995;50.856;4.404;2023-07-20T10:55:44;23.90;50.20
7900;DHT22;3995;50.856;4.404;2023-07-20T10:58:13;23.90;50.10
7900;DHT22;3995;50.856;4.404;2023-07-20T11:00:58;23.90;50.10
7900;DHT22;3995;50.856;4.404;2023-07-20T11:03:30;23.90;49.90
7900;DHT22;3995;50.856;4.404;2023-07-20T11:05:58;23.80;50.20
7900;DHT22;3995;50.856;4.404;2023-07-20T11:08:46;23.80;50.20
7900;DHT22;3995;50.856;4.404;2023-07-20T11:11:26;23.90;50.30
7900;DHT22;3995;50.856;4.404;2023-07-20T11:13:58;23.90;50.10
7900;DHT22;3995;50.856;4.404;2023-07-20T11:16:34;23.90;50.30
7900;DHT22;3995;50.856;4.404;2023-07-20T11:19:03;23.90;50.10
7900;DHT22;3995;50.856;4.404;2023-07-20T11:21:36;23.90;50.10
7900;DHT22;3995;50.856;4.404;2023-07-20T11:24:05;24.00;50.20
7900;DHT22;3995;50.856;4.404;2023-07-20T11:26:45;24.00;50.20
7900;DHT22;3995;50.856;4.404;2023-07-20T11:29:13;24.10;49.90
7900;DHT22;3995;50.856;4.404;2023-07-20T11:31:41;24.00;50.20
7900;DHT22;3995;50.856;4.404;2023-07-20T11:34:10;24.10;50.00
7900;DHT22;3995;50.856;4.404;2023-07-20T11:36:39;24.10;50.30
7900;DHT22;3995;50.856;4.404;2023-07-20T11:39:08;24.10;50.40
7900;DHT22;3995;50.856;4.404;2023-07-20T11:41:37;24.10;50.10
7900;DHT22;3995;50.856;4.404;2023-07-20T11:44:07;24.10;50.30
7900;DHT22;3995;50.856;4.404;2023-07-20T11:46:41;24.10;50.60
7900;DHT22;3995;50.856;4.404;2023-07-20T11:49:09;24.20;50.70
7900;DHT22;3995;50.856;4.404;2023-07-20T11:51:37;24.30;50.30
7900;DHT22;3995;50.856;4.404;2023-07-20T11:54:08;24.40;49.90
7900;DHT22;3995;50.856;4.404;2023-07-20T11:56:35;24.50;49.10
7900;DHT22;3995;50.856;4.404;2023-07-20T11:59:03;24.50;48.80
7900;DHT22;3995;50.856;4.404;2023-07-20T12:01:33;24.50;48.60
7900;DHT22;3995;50.856;4.404;2023-07-20T12:04:01;24.50;48.20
7900;DHT22;3995;50.856;4.404;2023-07-20T12:06:29;24.40;47.80
7900;DHT22;3995;50.856;4.404;2023-07-20T12:08:58;24.40;47.80
7900;DHT22;3995;50.856;4.404;2023-07-20T12:11:34;24.40;48.20
7900;DHT22;3995;50.856;4.404;2023-07-20T12:14:02;24.40;48.10
7900;DHT22;3995;50.856;4.404;2023-07-20T12:16:33;24.40;48.30
7900;DHT22;3995;50.856;4.404;2023-07-20T12:19:02;24.40;48.40
7900;DHT22;3995;50.856;4.404;2023-07-20T12:21:29;24.40;48.30
7900;DHT22;3995;50.856;4.404;2023-07-20T12:23:58;24.40;48.10
7900;DHT22;3995;50.856;4.404;2023-07-20T12:26:26;24.40;48.40
7900;DHT22;3995;50.856;4.404;2023-07-20T12:28:56;24.40;48.50
7900;DHT22;3995;50.856;4.404;2023-07-20T12:31:24;24.40;48.70
7900;DHT22;3995;50.856;4.404;2023-07-20T12:33:54;24.40;48.40
7900;DHT22;3995;50.856;4.404;2023-07-20T12:36:22;24.50;48.30
7900;DHT22;3995;50.856;4.404;2023-07-20T12:38:49;24.40;48.20
7900;DHT22;3995;50.856;4.404;2023-07-20T12:41:17;24.40;47.90
7900;DHT22;3995;50.856;4.404;2023-07-20T12:43:45;24.50;47.80
7900;DHT22;3995;50.856;4.404;2023-07-20T12:46:13;24.80;48.30
7900;DHT22;3995;50.856;4.404;2023-07-20T12:48:41;25.00;47.50
7900;DHT22;3995;50.856;4.404;2023-07-20T12:51:11;25.10;47.00
7900;DHT22;3995;50.856;4.404;2023-07-20T12:53:38;25.10;47.50
7900;DHT22;3995;50.856;4.404;2023-07-20T12:56:06;25.10;47.40
7900;DHT22;3995;50.856;4.404;2023-07-20T12:58:33;25.00;47.00
7900;DHT22;3995;50.856;4.404;2023-07-20T13:01:02;25.00;46.80
7900;DHT22;3995;50.856;4.404;2023-07-20T13:03:31;24.90;46.90
7900;DHT22;3995;50.856;4.404;2023-07-20T13:06:01;24.90;47.00
7900;DHT22;3995;50.856;4.404;2023-07-20T13:08:31;24.90;46.80
7900;DHT22;3995;50.856;4.404;2023-07-20T13:10:58;24.80;46.60
7900;DHT22;3995;50.856;4.404;2023-07-20T13:13:26;24.80;46.90
7900;DHT22;3995;50.856;4.404;2023-07-20T13:15:54;24.80;46.50
7900;DHT22;3995;50.856;4.404;2023-07-20T13:18:22;24.70;47.00
7900;DHT22;3995;50.856;4.404;2023-07-20T13:20:49;24.70;47.30
7900;DHT22;3995;50.856;4.404;2023-07-20T13:23:17;24.70;47.20
7900;DHT22;3995;50.856;4.404;2023-07-20T13:25:47;24.70;47.20
7900;DHT22;3995;50.856;4.404;2023-07-20T13:28:14;24.70;47.60
7900;DHT22;3995;50.856;4.404;2023-07-20T13:30:42;24.60;47.60
7900;DHT22;3995;50.856;4.404;2023-07-20T13:33:11;24.60;48.10
7900;DHT22;3995;50.856;4.404;2023-07-20T13:35:39;24.60;49.20
7900;DHT22;3995;50.856;4.404;2023-07-20T13:38:07;24.50;51.30
7900;DHT22;3995;50.856;4.404;2023-07-20T13:40:35;24.50;52.00
7900;DHT22;3995;50.856;4.404;2023-07-20T13:43:05;24.50;52.20
7900;DHT22;3995;50.856;4.404;2023-07-20T13:45:32;24.50;52.30
7900;DHT22;3995;50.856;4.404;2023-07-20T13:47:59;24.50;52.60
7900;DHT22;3995;50.856;4.404;2023-07-20T13:50:27;24.50;52.90
7900;DHT22;3995;50.856;4.404;2023-07-20T13:52:54;24.50;52.90
7900;DHT22;3995;50.856;4.404;2023-07-20T13:55:21;24.50;52.60
7900;DHT22;3995;50.856;4.404;2023-07-20T13:57:48;24.40;52.70
7900;DHT22;3995;50.856;4.404;2023-07-20T14:00:17;24.40;52.60
7900;DHT22;3995;50.856;4.404;2023-07-20T14:02:45;24.40;52.90
7900;DHT22;3995;50.856;4.404;2023-07-20T14:05:12;24.40;53.20
7900;DHT22;3995;50.856;4.404;2023-07-20T14:07:41;24.40;52.90
7900;DHT22;3995;50.856;4.404;2023-07-20T14:10:09;24.40;52.40
7900;DHT22;3995;50.856;4.404;2023-07-20T14:12:36;24.40;52.10
7900;DHT22;3995;50.856;4.404;2023-07-20T14:15:05;24.40;52.40
7900;DHT22;3995;50.856;4.404;2023-07-20T14:17:34;24.40;52.50
7900;DHT22;3995;50.856;4.404;2023-07-20T14:20:01;24.40;52.40
7900;DHT22;3995;50.856;4.404;2023-07-20T14:22:31;24.40;52.10
7900;DHT22;3995;50.856;4.404;2023-07-20T14:24:59;24.50;51.90
7900;DHT22;3995;50.856;4.404;2023-07-20T14:27:26;24.50;52.00
7900;DHT22;3995;50.856;4.404;2023-07-20T14:29:54;24.60;51.80
7900;DHT22;3995;50.856;4.404;2023-07-20T14:32:21;24.60;51.70
7900;DHT22;3995;50.856;4.404;2023-07-20T14:34:50;24.70;51.20
7900;DHT22;3995;50.856;4.404;2023-07-20T14:37:17;24.70;50.80
7900;DHT22;3995;50.856;4.404;2023-07-20T14:39:45;24.80;50.70
7900;DHT22;3995;50.856;4.404;2023-07-20T14:42:12;24.90;50.20
7900;DHT22;3995;50.856;4.404;2023-07-20T14:44:39;25.00;50.00
7900;DHT22;3995;50.856;4.404;2023-07-20T14:47:06;25.10;50.10
7900;DHT22;3995;50.856;4.404;2023-07-20T14:49:34;25.10;49.20
7900;DHT22;3995;50.856;4.404;2023-07-20T14:52:03;25.20;49.10
7900;DHT22;3995;50.856;4.404;2023-07-20T14:54:31;25.40;49.00
7900;DHT22;3995;50.856;4.404;2023-07-20T14:56:58;25.40;49.20
7900;DHT22;3995;50.856;4.404;2023-07-20T14:59:26;25.50;48.00
7900;DHT22;3995;50.856;4.404;2023-07-20T15:01:53;25.60;48.50
7900;DHT22;3995;50.856;4.404;2023-07-20T15:04:20;25.50;48.30
7900;DHT22;3995;50.856;4.404;2023-07-20T15:06:47;25.50;48.30
7900;DHT22;3995;50.856;4.404;2023-07-20T15:09:17;25.50;48.30
7900;DHT22;3995;50.856;4.404;2023-07-20T15:11:44;25.40;48.30
7900;DHT22;3995;50.856;4.404;2023-07-20T15:14:12;25.40;48.10
7900;DHT22;3995;50.856;4.404;2023-07-20T15:16:40;25.40;48.20
7900;DHT22;3995;50.856;4.404;2023-07-20T15:19:09;25.30;48.10
7900;DHT22;3995;50.856;4.404;2023-07-20T15:21:39;25.30;47.80
7900;DHT22;3995;50.856;4.404;2023-07-20T15:24:08;25.30;47.80
7900;DHT22;3995;50.856;4.404;2023-07-20T15:26:38;25.20;47.80
7900;DHT22;3995;50.856;4.404;2023-07-20T15:29:07;25.20;48.20
7900;DHT22;3995;50.856;4.404;2023-07-20T15:31:38;25.20;48.10
7900;DHT22;3995;50.856;4.404;2023-07-20T15:34:05;25.20;48.80
7900;DHT22;3995;50.856;4.404;2023-07-20T15:36:33;25.10;48.40
7900;DHT22;3995;50.856;4.404;2023-07-20T15:39:00;25.00;48.30
7900;DHT22;3995;50.856;4.404;2023-07-20T15:41:28;25.00;48.40
7900;DHT22;3995;50.856;4.404;2023-07-20T15:43:57;25.00;48.40
7900;DHT22;3995;50.856;4.404;2023-07-20T15:46:44;25.00;48.40
7900;DHT22;3995;50.856;4.404;2023-07-20T15:49:11;25.00;48.90
7900;DHT22;3995;50.856;4.404;2023-07-20T15:51:39;24.90;49.40
7900;DHT22;3995;50.856;4.404;2023-07-20T15:54:08;24.90;50.70
7900;DHT22;3995;50.856;4.404;2023-07-20T15:56:37;24.80;51.70
7900;DHT22;3995;50.856;4.404;2023-07-20T15:59:05;24.70;53.10
7900;DHT22;3995;50.856;4.404;2023-07-20T16:01:33;24.70;54.20
7900;DHT22;3995;50.856;4.404;2023-07-20T16:04:00;24.60;55.10
7900;DHT22;3995;50.856;4.404;2023-07-20T16:06:28;24.60;56.20
7900;DHT22;3995;50.856;4.404;2023-07-20T16:08:55;24.50;57.00
7900;DHT22;3995;50.856;4.404;2023-07-20T16:11:23;24.40;57.50